createdAt,value
2018-12-16T00:00:59.725Z,100890.86
2018-12-16T00:06:04.329Z,100872.95
2018-12-16T00:11:06.867Z,100870.55
2018-12-16T00:16:09.050Z,100862.93
2018-12-16T00:26:20.448Z,100839.72
2018-12-16T00:31:22.633Z,100837.31
2018-12-16T00:36:25.214Z,100823.50
2018-12-16T00:41:27.377Z,100816.43
2018-12-16T00:46:29.678Z,100811.80
2018-12-16T00:51:31.837Z,100802.38
2018-12-16T00:56:34.012Z,100804.38
2018-12-16T01:01:36.759Z,100807.13
2018-12-16T01:06:39.298Z,100809.02
2018-12-16T01:11:42.121Z,100812.44
2018-12-16T01:16:44.311Z,100805.70
2018-12-16T01:21:46.354Z,100806.78
2018-12-16T01:26:53.453Z,100802.98
2018-12-16T01:31:55.560Z,100794.92
2018-12-16T01:36:57.898Z,100789.05
2018-12-16T01:42:00.077Z,100781.49
2018-12-16T01:47:02.546Z,100772.73
2018-12-16T01:52:04.706Z,100766.09
2018-12-16T01:57:07.043Z,100766.59
2018-12-16T02:02:09.221Z,100771.81
2018-12-16T02:07:11.348Z,100757.70
2018-12-16T02:12:13.650Z,100753.53
2018-12-16T02:17:15.830Z,100745.85
2018-12-16T02:22:18.012Z,100730.59
2018-12-16T02:27:20.274Z,100725.98
2018-12-16T02:32:22.468Z,100708.32
2018-12-16T02:37:24.658Z,100694.09
2018-12-16T02:42:26.850Z,100687.57
2018-12-16T02:47:28.911Z,100688.15
2018-12-16T02:52:30.982Z,100680.30
2018-12-16T02:57:33.157Z,100674.30
2018-12-16T03:02:35.453Z,100662.12
2018-12-16T03:07:38.444Z,100659.00
2018-12-16T03:12:40.543Z,100647.43
2018-12-16T03:17:42.811Z,100637.23
2018-12-16T03:22:45.683Z,100623.84
2018-12-16T03:27:47.792Z,100621.20
2018-12-16T03:32:49.973Z,100614.60
2018-12-16T03:37:52.029Z,100607.71
2018-12-16T03:42:54.346Z,100593.37
2018-12-16T03:47:56.527Z,100585.67
2018-12-16T03:52:58.576Z,100575.77
2018-12-16T03:58:00.786Z,100566.23
2018-12-16T04:03:03.070Z,100566.90
2018-12-16T04:08:05.534Z,100548.50
2018-12-16T04:13:07.741Z,100546.25
2018-12-16T04:18:10.020Z,100545.86
2018-12-16T04:23:12.307Z,100542.00
2018-12-16T04:28:21.613Z,100539.36
2018-12-16T04:33:23.694Z,100530.97
2018-12-16T04:38:25.903Z,100528.80
2018-12-16T04:43:28.021Z,100514.83
2018-12-16T04:48:30.083Z,100489.20
2018-12-16T04:53:36.919Z,100487.34
2018-12-16T04:58:36.479Z,100493.34
2018-12-16T05:03:38.582Z,100481.29
2018-12-16T05:08:40.733Z,100480.54
2018-12-16T05:13:43.100Z,100482.78
2018-12-16T05:18:45.258Z,100490.70
2018-12-16T05:23:47.326Z,100484.77
2018-12-16T05:28:49.497Z,100484.28
2018-12-16T05:33:51.654Z,100479.58
2018-12-16T05:38:53.783Z,100464.48
2018-12-16T05:43:56.049Z,100470.34
2018-12-16T05:48:58.106Z,100460.92
2018-12-16T05:54:00.166Z,100466.87
2018-12-16T05:59:02.353Z,100455.04
2018-12-16T06:04:04.750Z,100433.19
2018-12-16T06:09:07.093Z,100429.73
2018-12-16T06:14:10.256Z,100428.97
2018-12-16T06:19:12.450Z,100421.16
2018-12-16T06:24:14.497Z,100403.90
2018-12-16T06:29:16.803Z,100392.83
2018-12-16T06:34:18.905Z,100391.92
2018-12-16T06:39:21.958Z,100393.58
2018-12-16T06:44:23.994Z,100390.95
2018-12-16T06:49:26.065Z,100393.73
2018-12-16T06:54:28.225Z,100401.27
2018-12-16T06:59:30.281Z,100390.02
2018-12-16T07:04:32.386Z,100396.05
2018-12-16T07:09:34.717Z,100404.43
2018-12-16T07:14:37.030Z,100393.98
2018-12-16T07:19:39.596Z,100401.41
2018-12-16T07:24:41.649Z,100387.25
2018-12-16T07:29:43.687Z,100384.62
2018-12-16T07:34:45.742Z,100392.86
2018-12-16T07:39:48.030Z,100396.05
2018-12-16T07:44:50.098Z,100399.72
2018-12-16T07:49:52.495Z,100394.66
2018-12-16T07:54:54.606Z,100374.05
2018-12-16T07:59:56.828Z,100368.12
2018-12-16T08:04:59.054Z,100365.91
2018-12-16T08:10:01.447Z,100365.06
2018-12-16T08:15:04.322Z,100370.34
2018-12-16T08:20:07.739Z,100372.41
2018-12-16T08:25:10.025Z,100356.55
2018-12-16T08:30:12.309Z,100353.55
2018-12-16T08:35:14.397Z,100336.55
2018-12-16T08:40:16.671Z,100338.69
2018-12-16T08:45:18.919Z,100341.50
2018-12-16T08:50:21.177Z,100332.50
2018-12-16T08:55:23.457Z,100346.60
2018-12-16T09:00:25.614Z,100340.56
2018-12-16T09:05:27.677Z,100341.55
2018-12-16T09:10:34.112Z,100355.37
2018-12-16T09:15:34.029Z,100345.11
2018-12-16T09:20:36.179Z,100331.42
2018-12-16T09:25:38.431Z,100322.49
2018-12-16T09:30:40.618Z,100313.96
2018-12-16T09:35:42.820Z,100314.39
2018-12-16T09:40:45.245Z,100306.70
2018-12-16T09:45:49.544Z,100312.89
2018-12-16T09:50:52.121Z,100305.97
2018-12-16T09:55:54.385Z,100313.42
2018-12-16T10:00:56.842Z,100299.22
2018-12-16T10:05:59.164Z,100289.69
2018-12-16T10:11:01.856Z,100288.77
2018-12-16T10:16:04.256Z,100281.33
2018-12-16T10:21:06.916Z,100277.84
2018-12-16T10:26:09.150Z,100265.27
2018-12-16T10:31:11.305Z,100237.98
2018-12-16T10:36:13.478Z,100237.03
2018-12-16T10:41:15.554Z,100229.93
2018-12-16T10:46:17.777Z,100235.36
2018-12-16T10:51:19.961Z,100216.21
2018-12-16T10:56:22.146Z,100217.61
2018-12-16T11:01:28.672Z,100221.11
2018-12-16T11:06:30.958Z,100213.29
2018-12-16T11:11:33.264Z,100209.38
2018-12-16T11:16:35.581Z,100195.64
2018-12-16T11:21:37.922Z,100191.69
2018-12-16T11:26:40.946Z,100183.28
2018-12-16T11:31:43.142Z,100173.50
2018-12-16T11:36:45.413Z,100176.34
2018-12-16T11:41:47.635Z,100166.02
2018-12-16T11:46:49.854Z,100161.81
2018-12-16T11:51:52.123Z,100153.08
2018-12-16T11:57:11.395Z,100142.19
2018-12-16T12:02:13.605Z,100137.75
2018-12-16T12:07:17.770Z,100138.14
2018-12-16T12:12:20.149Z,100135.61
2018-12-16T12:17:22.307Z,100117.78
2018-12-16T12:22:24.594Z,100114.30
2018-12-16T12:27:27.052Z,100109.73
2018-12-16T12:32:29.354Z,100108.26
2018-12-16T12:37:31.840Z,100105.48
2018-12-16T12:42:37.074Z,100095.53
2018-12-16T12:47:39.245Z,100083.44
2018-12-16T12:52:46.497Z,100086.25
2018-12-16T12:57:48.729Z,100090.45
2018-12-16T13:02:50.993Z,100094.80
2018-12-16T13:07:53.086Z,100088.67
2018-12-16T13:12:55.526Z,100082.86
2018-12-16T13:17:57.813Z,100072.53
2018-12-16T13:22:59.859Z,100092.45
2018-12-16T13:28:02.162Z,100095.19
2018-12-16T13:33:04.359Z,100097.13
2018-12-16T13:38:06.614Z,100095.48
2018-12-16T13:43:09.731Z,100096.86
2018-12-16T13:48:11.882Z,100104.00
2018-12-16T13:53:14.872Z,100113.64
2018-12-16T13:58:17.438Z,100116.41
2018-12-16T14:03:19.809Z,100112.84
2018-12-16T14:08:21.990Z,100108.44
2018-12-16T14:13:24.415Z,100118.31
2018-12-16T14:18:26.468Z,100114.83
2018-12-16T14:23:28.553Z,100122.14
2018-12-16T14:28:30.594Z,100118.97
2018-12-16T14:33:33.145Z,100108.88
2018-12-16T14:38:35.434Z,100106.36
2018-12-16T14:43:37.618Z,100110.09
2018-12-16T14:48:39.687Z,100108.09
2018-12-16T14:53:42.045Z,100104.38
2018-12-16T14:58:44.261Z,100102.44
2018-12-16T15:03:46.446Z,100109.26
2018-12-16T15:09:01.716Z,100108.84
2018-12-16T15:14:05.277Z,100116.55
2018-12-16T15:19:07.453Z,100124.24
2018-12-16T15:24:09.729Z,100123.88
2018-12-16T15:29:11.817Z,100130.30
2018-12-16T15:34:13.984Z,100118.98
2018-12-16T15:39:16.054Z,100125.00
2018-12-16T15:44:20.133Z,100130.50
2018-12-16T15:49:22.221Z,100134.34
2018-12-16T15:54:24.362Z,100141.86
2018-12-16T15:59:26.630Z,100147.05
2018-12-16T16:04:28.833Z,100153.09
2018-12-16T16:09:31.003Z,100150.93
2018-12-16T16:14:33.071Z,100146.78
2018-12-16T16:19:35.381Z,100151.66
2018-12-16T16:24:37.421Z,100161.21
2018-12-16T16:29:39.726Z,100153.38
2018-12-16T16:34:41.922Z,100163.84
2018-12-16T16:39:50.862Z,100162.21
2018-12-16T16:44:53.027Z,100159.89
2018-12-16T16:49:55.089Z,100162.53
2018-12-16T16:54:57.366Z,100162.61
2018-12-16T16:59:59.544Z,100163.33
2018-12-16T17:05:01.779Z,100166.52
2018-12-16T17:10:04.991Z,100164.16
2018-12-16T17:15:07.414Z,100165.36
2018-12-16T17:20:09.733Z,100176.48
2018-12-16T17:25:11.786Z,100182.16
2018-12-16T17:30:14.046Z,100183.95
2018-12-16T17:35:16.098Z,100189.44
2018-12-16T17:40:18.189Z,100188.16
2018-12-16T17:45:20.973Z,100192.40
2018-12-16T17:50:25.154Z,100195.04
2018-12-16T17:55:27.701Z,100202.68
2018-12-16T18:00:36.796Z,100206.91
2018-12-16T18:05:39.097Z,100200.39
2018-12-16T18:10:41.322Z,100202.75
2018-12-16T18:15:44.033Z,100207.20
2018-12-16T18:20:46.557Z,100194.31
2018-12-16T18:25:49.389Z,100200.55
2018-12-16T18:30:53.379Z,100200.15
2018-12-16T18:35:55.969Z,100207.07
2018-12-16T18:40:58.546Z,100201.80
2018-12-16T18:46:00.908Z,100203.52
2018-12-16T18:51:03.629Z,100208.31
2018-12-16T18:56:05.978Z,100200.08
2018-12-16T19:01:08.099Z,100198.87
2018-12-16T19:06:10.138Z,100191.47
2018-12-16T19:11:12.343Z,100199.67
2018-12-16T19:16:14.405Z,100197.23
2018-12-16T19:21:16.581Z,100196.62
2018-12-16T19:26:18.775Z,100188.85
2018-12-16T19:31:22.903Z,100197.48
2018-12-16T19:36:25.058Z,100210.46
2018-12-16T19:41:28.110Z,100205.38
2018-12-16T19:46:30.203Z,100219.42
2018-12-16T19:51:33.127Z,100225.95
2018-12-16T19:56:36.161Z,100223.87
2018-12-16T20:01:43.330Z,100237.19
2018-12-16T20:06:47.188Z,100248.43
2018-12-16T20:11:50.052Z,100242.52
2018-12-16T20:16:52.946Z,100240.63
2018-12-16T20:21:55.138Z,100242.94
2018-12-16T20:26:58.273Z,100242.08
2018-12-16T20:32:00.906Z,100240.97
2018-12-16T20:37:03.933Z,100251.55
2018-12-16T20:42:06.034Z,100252.41
2018-12-16T20:47:08.889Z,100254.12
2018-12-16T20:52:11.217Z,100260.39
2018-12-16T20:57:18.834Z,100262.88
2018-12-16T21:02:18.027Z,100278.95
2018-12-16T21:07:27.317Z,100270.70
2018-12-16T21:12:39.006Z,100271.09
2018-12-16T21:17:47.474Z,100263.67
2018-12-16T21:22:50.717Z,100257.42
2018-12-16T21:27:53.466Z,100272.56
2018-12-16T21:32:56.681Z,100278.78
2018-12-16T21:37:59.948Z,100283.02
2018-12-16T21:43:03.430Z,100279.59
2018-12-16T21:48:05.647Z,100282.09
2018-12-16T21:53:09.122Z,100275.00
2018-12-16T21:58:11.194Z,100275.89
2018-12-16T22:03:13.337Z,100277.72
2018-12-16T22:08:15.437Z,100282.11
2018-12-16T22:13:17.649Z,100281.06
2018-12-16T22:18:19.933Z,100280.55
2018-12-16T22:23:22.089Z,100287.95
2018-12-16T22:28:24.171Z,100299.84
2018-12-16T22:33:26.213Z,100310.69
2018-12-16T22:38:28.270Z,100306.77
2018-12-16T22:43:32.373Z,100310.88
2018-12-16T22:48:34.714Z,100319.77
2018-12-16T22:53:36.892Z,100324.20
2018-12-16T22:58:39.101Z,100329.91
2018-12-16T23:03:41.280Z,100337.97
2018-12-16T23:08:43.553Z,100328.08
2018-12-16T23:13:45.898Z,100332.88
2018-12-16T23:18:49.511Z,100339.65
2018-12-16T23:23:51.657Z,100332.67
2018-12-16T23:28:53.950Z,100332.20
2018-12-16T23:33:56.098Z,100339.44
2018-12-16T23:38:58.281Z,100341.33
2018-12-16T23:44:00.438Z,100340.01
2018-12-16T23:49:02.732Z,100319.68
2018-12-16T23:54:04.773Z,100325.23
2018-12-16T23:59:06.938Z,100319.97
